createdAt,value
2019-04-23T00:01:14.743Z,48.35
2019-04-23T00:03:41.552Z,48.26
2019-04-23T00:06:19.189Z,48.16
2019-04-23T00:11:26.048Z,48.02
2019-04-23T00:14:05.671Z,47.89
2019-04-23T00:16:42.680Z,47.93
2019-04-23T00:19:16.959Z,47.90
2019-04-23T00:22:13.862Z,47.68
2019-04-23T00:25:25.644Z,47.77
2019-04-23T00:30:10.033Z,47.67
2019-04-23T00:32:48.054Z,47.71
2019-04-23T00:35:23.748Z,47.65
2019-04-23T00:37:59.963Z,47.53
2019-04-23T00:43:08.964Z,47.55
2019-04-23T00:45:48.403Z,47.13
2019-04-23T00:48:28.024Z,46.93
2019-04-23T00:50:57.359Z,47.08
2019-04-23T00:53:26.987Z,47.22
2019-04-23T00:56:29.537Z,47.22
2019-04-23T00:58:41.256Z,47.28
2019-04-23T01:01:18.051Z,47.27
2019-04-23T01:03:53.402Z,47.21
2019-04-23T01:06:32.463Z,47.24
2019-04-23T01:09:08.939Z,47.12
2019-04-23T01:11:46.547Z,47.23
2019-04-23T01:14:21.547Z,47.30
2019-04-23T01:16:55.179Z,47.02
2019-04-23T01:19:41.821Z,47.02
2019-04-23T01:21:55.796Z,47.02
2019-04-23T01:24:48.755Z,46.85
2019-04-23T01:28:05.867Z,46.82
2019-04-23T01:30:26.320Z,46.67
2019-04-23T01:32:55.186Z,46.67
2019-04-23T01:35:45.093Z,46.87
2019-04-23T01:38:06.136Z,46.78
2019-04-23T01:40:40.718Z,46.56
2019-04-23T01:43:28.862Z,46.48
2019-04-23T01:45:56.174Z,46.42
2019-04-23T01:48:35.755Z,46.47
2019-04-23T01:51:02.470Z,46.21
2019-04-23T01:53:45.549Z,46.35
2019-04-23T01:56:25.975Z,46.17
2019-04-23T01:59:01.945Z,46.32
2019-04-23T02:01:32.759Z,46.37
2019-04-23T02:04:09.852Z,46.30
2019-04-23T02:06:59.275Z,46.18
2019-04-23T02:09:18.568Z,46.17
2019-04-23T02:11:53.902Z,46.26
2019-04-23T02:14:28.175Z,46.26
2019-04-23T02:17:07.625Z,46.40
2019-04-23T02:19:45.820Z,46.27
2019-04-23T02:22:28.503Z,46.40
2019-04-23T02:25:03.580Z,46.45
2019-04-23T02:27:37.931Z,46.42
2019-04-23T02:30:28.975Z,46.44
2019-04-23T02:33:06.306Z,46.45
2019-04-23T02:35:46.418Z,46.34
2019-04-23T02:40:49.473Z,46.67
2019-04-23T02:43:16.331Z,46.73
2019-04-23T02:48:24.798Z,46.75
2019-04-23T02:51:04.425Z,46.74
2019-04-23T02:59:11.113Z,46.85
2019-04-23T03:01:29.881Z,47.11
2019-04-23T03:04:17.456Z,46.99
2019-04-23T03:06:56.048Z,46.86
2019-04-23T03:12:06.946Z,47.16
2019-04-23T03:14:41.703Z,47.17
2019-04-23T03:17:27.180Z,47.15
2019-04-23T03:20:14.910Z,47.20
2019-04-23T03:25:38.101Z,47.35
2019-04-23T03:28:29.279Z,47.30
2019-04-23T03:32:37.462Z,47.20
2019-04-23T03:46:30.306Z,47.52
2019-04-23T03:48:57.324Z,47.61
2019-04-23T03:51:43.072Z,47.52
2019-04-23T03:54:30.653Z,47.73
2019-04-23T03:59:39.351Z,47.70
2019-04-23T04:02:34.033Z,47.40
2019-04-23T04:07:44.913Z,47.53
2019-04-23T04:09:53.910Z,47.40
2019-04-23T04:12:27.340Z,47.24
2019-04-23T04:15:10.433Z,47.04
2019-04-23T04:17:40.102Z,47.21
2019-04-23T04:23:00.030Z,47.20
2019-04-23T04:36:13.257Z,47.20
2019-04-23T04:48:56.507Z,46.68
2019-04-23T04:51:37.700Z,47.01
2019-04-23T04:54:09.766Z,46.52
2019-04-23T04:59:13.489Z,45.85
2019-04-23T05:02:00.754Z,45.74
2019-04-23T05:04:54.023Z,45.52
2019-04-23T05:07:09.340Z,45.34
2019-04-23T05:09:52.149Z,44.96
2019-04-23T05:14:56.840Z,44.61
2019-04-23T05:17:59.951Z,44.40
2019-04-23T05:23:00.701Z,44.19
2019-04-23T05:25:25.835Z,43.59
2019-04-23T05:28:08.261Z,43.56
2019-04-23T05:30:46.401Z,43.40
2019-04-23T05:33:21.768Z,42.83
2019-04-23T05:38:54.239Z,42.59
2019-04-23T05:43:57.993Z,41.74
2019-04-23T05:46:32.807Z,41.40
2019-04-23T05:49:06.212Z,41.04
2019-04-23T05:51:43.183Z,40.64
2019-04-23T05:54:13.590Z,40.76
2019-04-23T05:56:44.312Z,40.88
2019-04-23T05:59:28.132Z,40.20
2019-04-23T06:04:40.009Z,39.96
2019-04-23T06:07:25.373Z,39.83
2019-04-23T06:09:50.433Z,39.59
2019-04-23T06:12:19.041Z,39.39
2019-04-23T06:15:00.462Z,39.15
2019-04-23T06:17:32.320Z,39.33
2019-04-23T06:20:10.290Z,39.37
2019-04-23T06:22:51.207Z,38.89
2019-04-23T06:25:39.862Z,38.41
2019-04-23T06:28:08.203Z,38.91
2019-04-23T06:33:23.851Z,38.20
2019-04-23T06:35:50.405Z,38.35
2019-04-23T06:41:06.793Z,38.52
2019-04-23T06:43:58.418Z,38.27
2019-04-23T06:46:28.669Z,38.01
2019-04-23T06:49:00.843Z,37.62
2019-04-23T06:51:45.657Z,37.86
2019-04-23T06:54:18.494Z,37.48
2019-04-23T06:57:00.591Z,37.60
2019-04-23T06:59:27.745Z,37.61
2019-04-23T07:04:43.368Z,38.18
2019-04-23T07:07:31.553Z,37.56
2019-04-23T07:09:43.955Z,37.25
2019-04-23T07:12:21.946Z,37.11
2019-04-23T07:17:24.937Z,37.59
2019-04-23T07:20:00.242Z,37.70
2019-04-23T07:22:41.379Z,37.55
2019-04-23T07:25:14.918Z,37.26
2019-04-23T07:27:51.118Z,37.47
2019-04-23T07:30:23.706Z,37.65
2019-04-23T07:32:56.893Z,37.96
2019-04-23T07:35:30.485Z,37.51
2019-04-23T07:38:20.682Z,37.37
2019-04-23T07:40:46.652Z,37.47
2019-04-23T07:43:30.749Z,37.52
2019-04-23T07:46:40.757Z,37.37
2019-04-23T07:49:04.623Z,37.17
2019-04-23T07:51:46.897Z,37.54
2019-04-23T07:54:25.782Z,36.95
2019-04-23T07:57:02.927Z,36.32
2019-04-23T08:02:08.148Z,36.91
2019-04-23T08:04:44.674Z,36.80
2019-04-23T08:07:14.545Z,36.29
2019-04-23T08:09:53.356Z,36.58
2019-04-23T08:12:25.586Z,37.11
2019-04-23T08:15:02.319Z,36.33
2019-04-23T08:17:29.131Z,37.34
2019-04-23T08:20:07.472Z,36.90
2019-04-23T08:22:55.466Z,36.09
2019-04-23T08:25:35.530Z,35.88
2019-04-23T08:28:29.430Z,36.03
2019-04-23T08:30:56.256Z,36.16
2019-04-23T08:33:26.502Z,36.12
2019-04-23T08:36:04.080Z,35.89
2019-04-23T08:38:36.016Z,35.50
2019-04-23T08:41:17.402Z,35.21
2019-04-23T08:43:48.740Z,35.44
2019-04-23T08:46:51.113Z,35.11
2019-04-23T08:49:23.935Z,35.79
2019-04-23T08:52:03.762Z,35.26
2019-04-23T08:54:46.768Z,35.85
2019-04-23T09:03:18.719Z,35.70
2019-04-23T09:05:56.024Z,36.11
2019-04-23T09:11:16.620Z,35.06
2019-04-23T09:16:15.549Z,35.09
2019-04-23T09:19:03.903Z,35.17
2019-04-23T09:21:33.240Z,35.65
2019-04-23T09:24:29.452Z,35.12
2019-04-23T09:26:51.746Z,35.02
2019-04-23T09:29:32.214Z,35.23
2019-04-23T09:32:23.343Z,35.24
2019-04-23T09:35:29.337Z,35.35
2019-04-23T09:38:17.774Z,33.97
2019-04-23T09:43:57.747Z,34.27
2019-04-23T09:46:55.949Z,34.64
2019-04-23T09:49:34.865Z,33.96
2019-04-23T09:52:07.299Z,34.94
2019-04-23T09:54:47.727Z,34.36
2019-04-23T09:57:17.156Z,34.24
2019-04-23T10:00:03.250Z,35.04
2019-04-23T10:02:27.406Z,34.21
2019-04-23T10:05:06.049Z,34.15
2019-04-23T10:07:38.399Z,34.61
2019-04-23T10:10:01.623Z,34.37
2019-04-23T10:12:37.738Z,34.02
2019-04-23T10:15:21.502Z,34.27
2019-04-23T10:17:47.033Z,34.90
2019-04-23T10:20:22.488Z,34.20
2019-04-23T10:23:02.292Z,34.40
2019-04-23T10:25:40.328Z,34.65
2019-04-23T10:28:44.250Z,35.27
2019-04-23T10:31:18.707Z,35.44
2019-04-23T10:34:02.093Z,35.12
2019-04-23T10:36:38.144Z,34.69
2019-04-23T10:39:19.577Z,34.47
2019-04-23T10:41:48.741Z,35.12
2019-04-23T10:44:29.171Z,34.32
2019-04-23T10:48:12.239Z,34.97
2019-04-23T10:51:24.925Z,34.57
2019-04-23T10:53:46.043Z,34.70
2019-04-23T10:56:13.620Z,34.65
2019-04-23T10:58:38.544Z,34.93
2019-04-23T11:01:36.581Z,35.43
2019-04-23T11:04:08.334Z,35.24
2019-04-23T11:06:36.030Z,35.24
2019-04-23T11:09:16.017Z,35.03
2019-04-23T11:12:04.278Z,35.37
2019-04-23T11:14:30.752Z,34.91
2019-04-23T11:17:09.656Z,35.97
2019-04-23T11:24:48.641Z,36.14
2019-04-23T11:27:31.341Z,36.34
2019-04-23T11:30:15.035Z,36.25
2019-04-23T11:32:46.906Z,36.05
2019-04-23T11:35:26.034Z,36.03
2019-04-23T11:38:15.539Z,35.79
2019-04-23T11:40:23.347Z,36.31
2019-04-23T11:42:57.954Z,36.24
2019-04-23T11:51:30.387Z,36.28
2019-04-23T11:53:19.733Z,35.15
2019-04-23T11:55:53.322Z,35.22
2019-04-23T11:58:29.132Z,34.84
2019-04-23T12:01:38.533Z,34.27
2019-04-23T12:04:21.462Z,34.75
2019-04-23T12:10:07.727Z,35.20
2019-04-23T12:15:25.209Z,34.57
2019-04-23T12:17:48.980Z,33.09
2019-04-23T12:20:21.341Z,33.86
2019-04-23T12:23:04.276Z,33.86
2019-04-23T12:25:34.136Z,34.34
2019-04-23T12:28:06.566Z,34.22
2019-04-23T12:33:28.119Z,33.96
2019-04-23T12:35:49.970Z,35.07
2019-04-23T12:38:31.234Z,34.20
2019-04-23T12:41:03.836Z,35.00
2019-04-23T12:43:40.063Z,34.30
2019-04-23T12:46:17.874Z,35.01
2019-04-23T12:48:58.032Z,34.96
2019-04-23T12:51:37.977Z,34.93
2019-04-23T12:54:07.598Z,35.50
2019-04-23T12:56:49.083Z,35.11
2019-04-23T12:59:16.194Z,35.67
2019-04-23T13:01:57.685Z,35.54
2019-04-23T13:04:24.608Z,35.78
2019-04-23T13:06:57.898Z,35.87
2019-04-23T13:09:54.543Z,35.41
2019-04-23T13:12:29.397Z,35.55
2019-04-23T13:14:56.009Z,35.80
2019-04-23T13:17:40.295Z,35.71
2019-04-23T13:20:07.575Z,35.84
2019-04-23T13:30:59.301Z,35.66
2019-04-23T13:33:38.926Z,35.09
2019-04-23T13:36:18.851Z,35.08
2019-04-23T13:39:05.406Z,34.70
2019-04-23T13:41:20.105Z,34.96
2019-04-23T13:46:34.470Z,35.19
2019-04-23T13:49:10.001Z,35.21
2019-04-23T13:52:15.962Z,35.23
2019-04-23T13:54:27.803Z,35.95
2019-04-23T13:59:41.669Z,35.58
2019-04-23T14:02:17.154Z,35.16
2019-04-23T14:04:54.440Z,35.63
2019-04-23T14:07:32.723Z,36.25
2019-04-23T14:10:11.920Z,35.52
2019-04-23T14:12:42.198Z,35.56
2019-04-23T14:15:14.994Z,35.20
2019-04-23T14:18:02.892Z,34.55
2019-04-23T14:20:21.823Z,35.37
2019-04-23T14:23:07.918Z,34.98
2019-04-23T14:25:47.959Z,34.85
2019-04-23T14:30:52.255Z,33.98
2019-04-23T14:35:50.906Z,34.54
2019-04-23T14:41:09.853Z,34.62
2019-04-23T14:43:52.371Z,34.66
2019-04-23T14:50:09.319Z,34.63
2019-04-23T14:56:26.386Z,34.15
2019-04-23T14:59:30.700Z,34.79
2019-04-23T15:02:38.246Z,35.13
2019-04-23T15:05:15.516Z,34.69
2019-04-23T15:08:03.997Z,34.77
2019-04-23T15:11:20.873Z,34.96
2019-04-23T15:13:56.286Z,35.07
2019-04-23T15:16:39.636Z,35.29
2019-04-23T15:19:37.905Z,35.12
2019-04-23T15:22:12.519Z,35.18
2019-04-23T15:25:13.691Z,35.90
2019-04-23T15:29:56.445Z,35.99
2019-04-23T15:32:53.440Z,35.62
2019-04-23T15:35:25.277Z,35.77
2019-04-23T15:48:19.228Z,36.22
2019-04-23T15:50:52.446Z,36.00
2019-04-23T15:53:19.599Z,35.88
2019-04-23T15:56:11.761Z,35.94
2019-04-23T15:58:50.378Z,35.84
2019-04-23T16:03:33.890Z,35.85
2019-04-23T16:06:13.503Z,35.97
2019-04-23T16:09:08.066Z,35.83
2019-04-23T16:14:41.082Z,35.85
2019-04-23T16:17:11.634Z,35.96
2019-04-23T16:19:54.833Z,36.40
2019-04-23T16:22:36.646Z,35.88
2019-04-23T16:27:26.036Z,36.15
2019-04-23T16:30:14.324Z,36.28
2019-04-23T16:36:05.030Z,36.34
2019-04-23T16:41:19.391Z,36.40
2019-04-23T16:44:00.948Z,36.69
2019-04-23T16:46:27.000Z,36.75
2019-04-23T16:49:13.117Z,37.35
2019-04-23T16:51:37.407Z,37.84
2019-04-23T16:57:15.263Z,41.51
2019-04-23T16:59:24.599Z,43.43
2019-04-23T17:02:12.062Z,42.58
2019-04-23T17:04:39.088Z,43.26
2019-04-23T17:07:08.406Z,44.50
2019-04-23T17:10:00.328Z,43.67
2019-04-23T17:12:17.703Z,42.64
2019-04-23T17:17:38.011Z,41.89
2019-04-23T17:20:28.711Z,42.37
2019-04-23T17:22:56.607Z,41.57
2019-04-23T17:25:25.849Z,40.92
2019-04-23T17:28:16.829Z,41.29
2019-04-23T17:30:41.771Z,40.34
2019-04-23T17:33:33.270Z,40.15
2019-04-23T17:36:22.914Z,40.25
2019-04-23T17:38:55.497Z,39.44
2019-04-23T17:42:05.208Z,38.71
2019-04-23T17:44:38.765Z,39.31
2019-04-23T17:47:13.438Z,38.95
2019-04-23T17:50:01.726Z,38.82
2019-04-23T17:52:34.892Z,38.63
2019-04-23T17:55:13.032Z,38.96
2019-04-23T17:57:50.125Z,38.92
2019-04-23T18:05:40.741Z,39.03
2019-04-23T18:16:30.359Z,39.87
2019-04-23T18:19:09.975Z,39.76
2019-04-23T18:24:40.640Z,40.16
2019-04-23T18:30:21.420Z,40.58
2019-04-23T18:33:41.817Z,40.56
2019-04-23T18:35:35.704Z,41.03
2019-04-23T18:41:02.109Z,41.20
2019-04-23T18:46:08.706Z,41.44
2019-04-23T18:51:33.660Z,42.07
2019-04-23T18:56:31.177Z,42.37
2019-04-23T19:01:59.937Z,42.82
2019-04-23T19:05:03.729Z,42.30
2019-04-23T19:07:36.756Z,42.18
2019-04-23T19:10:29.169Z,42.13
2019-04-23T19:13:07.699Z,41.84
2019-04-23T19:15:38.166Z,41.85
2019-04-23T19:18:12.559Z,41.74
2019-04-23T19:21:08.910Z,41.83
2019-04-23T19:23:35.169Z,41.71
2019-04-23T19:26:02.188Z,41.55
2019-04-23T19:28:50.274Z,41.29
2019-04-23T19:31:25.149Z,41.21
2019-04-23T19:34:30.308Z,41.27
2019-04-23T19:36:56.365Z,41.41
2019-04-23T19:39:26.850Z,41.00
2019-04-23T19:47:33.149Z,40.82
2019-04-23T19:52:52.585Z,40.53
2019-04-23T19:54:56.925Z,40.47
2019-04-23T19:57:39.686Z,40.24
2019-04-23T20:00:19.906Z,40.55
2019-04-23T20:05:13.986Z,39.99
2019-04-23T20:07:56.935Z,40.01
2019-04-23T20:10:30.899Z,40.14
2019-04-23T20:13:00.730Z,40.15
2019-04-23T20:15:52.673Z,40.22
2019-04-23T20:18:09.044Z,40.03
2019-04-23T20:20:51.441Z,39.83
2019-04-23T20:23:36.064Z,40.10
2019-04-23T20:32:05.767Z,39.39
2019-04-23T20:34:31.029Z,39.25
2019-04-23T20:36:57.906Z,39.24
2019-04-23T20:44:57.037Z,39.41
2019-04-23T20:49:51.886Z,39.54
2019-04-23T20:52:28.962Z,39.57
2019-04-23T20:55:08.563Z,39.37
2019-04-23T20:58:13.735Z,39.52
2019-04-23T21:00:47.827Z,39.52
2019-04-23T21:03:29.007Z,39.57
2019-04-23T21:05:50.049Z,39.69
2019-04-23T21:10:58.415Z,39.86
2019-04-23T21:14:01.945Z,39.85
2019-04-23T21:16:26.791Z,40.02
2019-04-23T21:18:52.828Z,40.30
2019-04-23T21:21:25.221Z,40.44
2019-04-23T21:26:46.001Z,41.12
2019-04-23T21:29:09.211Z,41.16
2019-04-23T21:31:55.034Z,41.15
2019-04-23T21:34:24.932Z,41.17
2019-04-23T21:36:58.653Z,41.52
2019-04-23T21:40:04.553Z,41.61
2019-04-23T21:42:38.437Z,41.90
2019-04-23T21:45:02.612Z,42.00
2019-04-23T21:47:48.261Z,42.27
2019-04-23T21:50:19.724Z,42.42
2019-04-23T21:52:51.022Z,42.39
2019-04-23T21:55:34.957Z,42.63
2019-04-23T22:00:46.229Z,42.89
2019-04-23T22:03:22.605Z,42.83
2019-04-23T22:08:29.001Z,43.06
2019-04-23T22:11:24.818Z,43.04
2019-04-23T22:13:51.087Z,43.38
2019-04-23T22:16:14.694Z,43.47
2019-04-23T22:19:00.326Z,43.39
2019-04-23T22:21:27.869Z,43.81
2019-04-23T22:29:16.473Z,43.80
2019-04-23T22:31:41.892Z,43.85
2019-04-23T22:34:19.498Z,43.81
2019-04-23T22:37:01.870Z,44.02
2019-04-23T22:39:23.598Z,43.91
2019-04-23T22:44:39.831Z,43.86
2019-04-23T22:47:25.123Z,43.90
2019-04-23T22:52:33.722Z,43.48
2019-04-23T22:55:18.124Z,43.90
2019-04-23T23:00:24.397Z,43.69
2019-04-23T23:06:03.127Z,44.06
2019-04-23T23:10:57.006Z,43.78
2019-04-23T23:13:41.847Z,43.90
2019-04-23T23:18:43.984Z,43.87
2019-04-23T23:21:11.996Z,43.96
2019-04-23T23:23:52.986Z,43.67
2019-04-23T23:26:28.046Z,44.12
2019-04-23T23:29:00.708Z,44.14
2019-04-23T23:31:39.859Z,44.27
2019-04-23T23:36:54.695Z,44.13
2019-04-23T23:42:02.886Z,44.52
2019-04-23T23:44:56.197Z,44.71
2019-04-23T23:47:15.076Z,44.65
2019-04-23T23:49:54.536Z,44.66
2019-04-23T23:52:21.137Z,44.84
2019-04-23T23:55:05.955Z,44.99
2019-04-23T23:57:21.527Z,45.15
